»·PEaware :: AAL3247 KASE-KDFW

AAL3247 :: KASE-KDFW

FLIGHT INFORMATION

Flight Status: Arrived
Operator:
American Airlines
More flights by this operator :: More flights under this callsign
Pilot: Andrew C. (28419)
Aircraft: AIRBUS A319
(A319)
More flights by this aircraft type
Origin: KASE Aspen-Pitkin Co/Sardy
United States
Destination: KDFW Dallas-Ft Worth Intl
United States
More flights between these airports :: More routes between these airports
Route: +LINDZ9 LINDZ KEEPP CLIMN MROON HBU ALS PNH MDANO VKTRY2
File this flight plan on PilotEdge
Remarks: RMK / SIMBRIEF
Altitude:
(Current/Filed)
37,000ft
Speed:
(Current/Filed)
444kts
Departed: 22-Oct-20 08:20 PM
Arrived: 22-Oct-20 09:56 PM
Distance/Time
Traveled:
609nm/1:36
Distance/Time
To Go:
Arrived

Flight Plot

Page will automatically refresh every two minutes.

Flight plan parsing failed; only flown route is shown


Map Options




Map Legend


Flown Route
Filed Route
Departure Airport
Arrival Airport
Navaid (VOR, NDB)
Fix

Horizontal Profiles

Position Reports

Time Latitude Longitude Heading Altitude Ground
Speed
22-Oct-20 19:55 39.219026 -106.864519 70 7843ft 0kts
22-Oct-20 19:56 39.219026 -106.864519 70 7843ft 0kts
22-Oct-20 19:57 39.219026 -106.864519 70 7843ft 0kts
22-Oct-20 19:58 39.219026 -106.864519 70 7842ft 0kts
22-Oct-20 19:59 39.219026 -106.864519 70 7842ft 0kts
22-Oct-20 20:00 39.219026 -106.864519 70 7842ft 0kts
22-Oct-20 20:01 39.219026 -106.864519 70 7842ft 0kts
22-Oct-20 20:02 39.219026 -106.864519 70 7842ft 0kts
22-Oct-20 20:03 39.219026 -106.864519 70 7842ft 0kts
22-Oct-20 20:04 39.219026 -106.864519 70 7842ft 0kts
22-Oct-20 20:05 39.219026 -106.864519 70 7842ft 0kts
22-Oct-20 20:06 39.219026 -106.864519 70 7842ft 0kts
22-Oct-20 20:07 39.219026 -106.864519 70 7842ft 0kts
22-Oct-20 20:08 39.219026 -106.864519 70 7842ft 0kts
22-Oct-20 20:09 39.219026 -106.864520 70 7842ft 0kts
22-Oct-20 20:10 39.219026 -106.864520 70 7842ft 0kts
22-Oct-20 20:11 39.219026 -106.864520 70 7842ft 0kts
22-Oct-20 20:12 39.218848 -106.865186 77 7842ft 2kts
22-Oct-20 20:13 39.219103 -106.865760 163 7842ft 1kts
22-Oct-20 20:14 39.219138 -106.865774 160 7842ft 0kts
22-Oct-20 20:15 39.218902 -106.865666 160 7842ft 9kts
22-Oct-20 20:16 39.214173 -106.863422 159 7842ft 20kts
22-Oct-20 20:17 39.212352 -106.862593 175 7842ft 0kts
22-Oct-20 20:18 39.211865 -106.862851 231 7842ft 11kts
22-Oct-20 20:19 39.236547 -106.875394 339 8242ft 182kts
22-Oct-20 20:20 39.276349 -106.905992 300 10599ft 189kts
22-Oct-20 20:21 39.289584 -106.981820 281 12015ft 254kts
22-Oct-20 20:22 39.327669 -107.072651 309 13404ft 337kts
22-Oct-20 20:23 39.389047 -107.176258 278 14629ft 388kts
22-Oct-20 20:24 39.343794 -107.293775 210 17291ft 409kts
22-Oct-20 20:25 39.226527 -107.283083 171 19590ft 447kts
22-Oct-20 20:26 39.104094 -107.243761 171 21537ft 460kts
22-Oct-20 20:27 38.978033 -107.203913 171 23287ft 471kts
22-Oct-20 20:28 38.850029 -107.163672 171 24862ft 479kts
22-Oct-20 20:29 38.721815 -107.123506 171 26831ft 472kts
22-Oct-20 20:30 38.594978 -107.083914 171 28578ft 467kts
22-Oct-20 20:31 38.470741 -107.038113 160 30099ft 471kts
22-Oct-20 20:32 38.363669 -106.940836 142 31547ft 478kts
22-Oct-20 20:33 38.265033 -106.828627 142 32840ft 474kts
22-Oct-20 20:34 38.166677 -106.718030 142 33966ft 471kts
22-Oct-20 20:35 38.068866 -106.608589 142 34987ft 469kts
22-Oct-20 20:36 37.971341 -106.499913 141 35955ft 465kts
22-Oct-20 20:37 37.874875 -106.392827 142 36753ft 462kts
22-Oct-20 20:38 37.778189 -106.285922 142 37190ft 462kts
22-Oct-20 20:39 37.681597 -106.179230 142 37244ft 461kts
22-Oct-20 20:40 37.584968 -106.073050 142 37255ft 461kts
22-Oct-20 20:41 37.488413 -105.967320 142 37250ft 460kts
22-Oct-20 20:42 37.392317 -105.860956 139 37232ft 461kts
22-Oct-20 20:43 37.310581 -105.736444 125 37217ft 467kts
22-Oct-20 20:44 37.243020 -105.597195 124 37213ft 466kts
22-Oct-20 20:45 37.175731 -105.458785 124 37213ft 466kts
22-Oct-20 20:46 37.108027 -105.320268 125 37213ft 466kts
22-Oct-20 20:47 37.040529 -105.182351 125 37213ft 465kts
22-Oct-20 20:48 36.972489 -105.044328 125 37211ft 465kts
22-Oct-20 20:49 36.904430 -104.906883 125 37194ft 465kts
22-Oct-20 20:50 36.835907 -104.769948 125 37180ft 466kts
22-Oct-20 20:51 36.767560 -104.633299 125 37176ft 465kts
22-Oct-20 20:52 36.699080 -104.496730 125 37176ft 465kts
22-Oct-20 20:53 36.630229 -104.359953 125 37176ft 466kts
22-Oct-20 20:54 36.561665 -104.223792 125 37177ft 465kts
22-Oct-20 20:55 36.492789 -104.087910 125 37180ft 465kts
22-Oct-20 20:56 36.423775 -103.952435 125 37183ft 465kts
22-Oct-20 20:57 36.354613 -103.817222 125 37183ft 465kts
22-Oct-20 20:58 36.285412 -103.682469 125 37183ft 465kts
22-Oct-20 20:59 36.215823 -103.547491 125 37183ft 464kts
22-Oct-20 21:00 36.146236 -103.413038 126 37183ft 464kts
22-Oct-20 21:01 36.076719 -103.278968 126 37183ft 464kts
22-Oct-20 21:02 36.007002 -103.145042 126 37184ft 463kts
22-Oct-20 21:03 35.937372 -103.012108 126 37185ft 461kts
22-Oct-20 21:04 35.867390 -102.879372 126 37186ft 461kts
22-Oct-20 21:05 35.797218 -102.746978 126 37185ft 461kts
22-Oct-20 21:06 35.727213 -102.614878 126 37185ft 460kts
22-Oct-20 21:07 35.657475 -102.483754 126 37185ft 460kts
22-Oct-20 21:08 35.587366 -102.352400 126 37185ft 460kts
22-Oct-20 21:09 35.517238 -102.221035 127 37187ft 459kts
22-Oct-20 21:10 35.447107 -102.090583 127 37187ft 459kts
22-Oct-20 21:11 35.376640 -101.960030 127 37166ft 458kts
22-Oct-20 21:12 35.306256 -101.830110 127 37152ft 458kts
22-Oct-20 21:13 35.236515 -101.699975 124 37148ft 460kts
22-Oct-20 21:14 35.177488 -101.561036 120 37148ft 461kts
22-Oct-20 21:15 35.119334 -101.421282 120 37148ft 461kts
22-Oct-20 21:16 35.061226 -101.282176 120 37148ft 460kts
22-Oct-20 21:17 35.003092 -101.143552 120 37148ft 460kts
22-Oct-20 21:18 34.944694 -101.005141 120 37148ft 460kts
22-Oct-20 21:19 34.885904 -100.866626 120 37124ft 459kts
22-Oct-20 21:20 34.826870 -100.728876 120 37075ft 459kts
22-Oct-20 21:21 34.768062 -100.591364 120 37026ft 459kts
22-Oct-20 21:22 34.645264 -100.305530 120 36971ft 457kts
22-Oct-20 21:23 34.472035 -99.906113 120 36956ft 456kts
22-Oct-20 21:24 34.291609 -99.500149 122 36954ft 455kts
22-Oct-20 21:25 34.210058 -99.329865 122 36954ft 455kts
22-Oct-20 21:26 34.146817 -99.197239 122 36816ft 455kts
22-Oct-20 21:28 34.084477 -99.067335 122 34881ft 446kts
22-Oct-20 21:29 34.022453 -98.938599 121 32253ft 445kts
22-Oct-20 21:30 33.960274 -98.810012 121 29329ft 445kts
22-Oct-20 21:31 33.898108 -98.681838 121 26948ft 430kts
22-Oct-20 21:32 33.838310 -98.561029 121 25132ft 413kts
22-Oct-20 21:33 33.780888 -98.443680 121 23179ft 404kts
22-Oct-20 21:34 33.725138 -98.329693 121 21258ft 388kts
22-Oct-20 21:35 33.671450 -98.219760 122 19409ft 374kts
22-Oct-20 21:36 33.619308 -98.114081 122 17585ft 362kts
22-Oct-20 21:37 33.568464 -98.011856 122 15828ft 353kts
22-Oct-20 21:38 33.519054 -97.912716 122 14514ft 330kts
22-Oct-20 21:39 33.473079 -97.820483 122 13152ft 319kts
22-Oct-20 21:40 33.428062 -97.730247 122 11656ft 310kts
22-Oct-20 21:41 33.384734 -97.643948 125 10666ft 285kts
22-Oct-20 21:42 33.338553 -97.568017 130 9424ft 278kts
22-Oct-20 21:43 33.293223 -97.494513 130 8157ft 271kts
22-Oct-20 21:44 33.268761 -97.411666 97 6919ft 273kts
22-Oct-20 21:44 33.265436 -97.337488 99 5924ft 261kts
22-Oct-20 21:46 33.247486 -97.245069 123 4623ft 235kts
22-Oct-20 21:47 33.210721 -97.184935 133 3716ft 212kts
22-Oct-20 21:47 33.181482 -97.139544 133 3023ft 203kts
22-Oct-20 21:49 33.144615 -97.082956 140 3014ft 171kts
22-Oct-20 21:49 33.116409 -97.049917 140 3014ft 170kts
22-Oct-20 21:50 33.074511 -97.030439 176 3015ft 164kts
22-Oct-20 21:51 33.034483 -97.029485 179 2899ft 135kts
22-Oct-20 21:52 32.997382 -97.029488 179 2201ft 133kts
22-Oct-20 21:53 32.961121 -97.029696 178 1498ft 130kts
22-Oct-20 21:54 32.925238 -97.029815 179 834ft 128kts
22-Oct-20 21:55 32.900772 -97.030011 178 589ft 27kts
22-Oct-20 21:56 32.897571 -97.030750 243 589ft 7kts
22-Oct-20 21:57 32.898551 -97.033190 3 589ft 14kts
22-Oct-20 21:58 32.903122 -97.033130 356 589ft 16kts
22-Oct-20 21:59 32.904211 -97.034940 288 589ft 2kts
22-Oct-20 22:00 32.904229 -97.035005 288 589ft 0kts
22-Oct-20 22:01 32.904229 -97.035005 288 589ft 0kts

Navigation Log

Ident Type
Flight plan parsing failed, navigation log unavailable